sensor_id;sensor_type;location;lat;lon;timestamp;temperature;humidity
28171;DHT22;15458;53.346;-1.688;2023-04-23T00:02:15;8.50;99.90
28171;DHT22;15458;53.346;-1.688;2023-04-23T00:04:49;8.50;99.90
28171;DHT22;15458;53.346;-1.688;2023-04-23T00:07:18;8.50;99.90
28171;DHT22;15458;53.346;-1.688;2023-04-23T00:09:44;8.40;99.90
28171;DHT22;15458;53.346;-1.688;2023-04-23T00:12:10;8.40;99.90
28171;DHT22;15458;53.346;-1.688;2023-04-23T00:14:36;8.40;99.90
28171;DHT22;15458;53.346;-1.688;2023-04-23T00:17:02;8.40;99.90
28171;DHT22;15458;53.346;-1.688;2023-04-23T00:19:28;8.40;99.90
28171;DHT22;15458;53.346;-1.688;2023-04-23T00:21:54;8.40;99.90
28171;DHT22;15458;53.346;-1.688;2023-04-23T00:24:20;8.40;99.90
28171;DHT22;15458;53.346;-1.688;2023-04-23T00:26:45;8.40;99.90
28171;DHT22;15458;53.346;-1.688;2023-04-23T00:29:11;8.40;99.90
28171;DHT22;15458;53.346;-1.688;2023-04-23T00:31:37;8.30;99.90
28171;DHT22;15458;53.346;-1.688;2023-04-23T00:34:03;8.40;99.90
28171;DHT22;15458;53.346;-1.688;2023-04-23T00:36:28;8.30;99.90
28171;DHT22;15458;53.346;-1.688;2023-04-23T00:38:54;8.30;99.90
28171;DHT22;15458;53.346;-1.688;2023-04-23T00:41:20;8.40;99.90
28171;DHT22;15458;53.346;-1.688;2023-04-23T00:43:46;8.30;99.90
28171;DHT22;15458;53.346;-1.688;2023-04-23T00:46:13;8.30;99.90
28171;DHT22;15458;53.346;-1.688;2023-04-23T00:48:39;8.30;99.90
28171;DHT22;15458;53.346;-1.688;2023-04-23T00:51:06;8.30;99.90
28171;DHT22;15458;53.346;-1.688;2023-04-23T00:53:32;8.30;99.90
28171;DHT22;15458;53.346;-1.688;2023-04-23T00:56:01;8.30;99.90
28171;DHT22;15458;53.346;-1.688;2023-04-23T00:58:28;8.30;99.90
28171;DHT22;15458;53.346;-1.688;2023-04-23T01:00:55;8.30;99.90
28171;DHT22;15458;53.346;-1.688;2023-04-23T01:03:22;8.30;99.90
28171;DHT22;15458;53.346;-1.688;2023-04-23T01:05:50;8.30;99.90
28171;DHT22;15458;53.346;-1.688;2023-04-23T01:08:16;8.20;99.90
28171;DHT22;15458;53.346;-1.688;2023-04-23T01:10:44;8.20;99.90
28171;DHT22;15458;53.346;-1.688;2023-04-23T01:13:14;8.20;99.90
28171;DHT22;15458;53.346;-1.688;2023-04-23T01:15:40;8.20;99.90
28171;DHT22;15458;53.346;-1.688;2023-04-23T01:18:06;8.20;99.90
28171;DHT22;15458;53.346;-1.688;2023-04-23T01:20:35;8.10;99.90
28171;DHT22;15458;53.346;-1.688;2023-04-23T01:23:02;8.20;99.90
28171;DHT22;15458;53.346;-1.688;2023-04-23T01:25:28;8.10;99.90
28171;DHT22;15458;53.346;-1.688;2023-04-23T01:27:55;8.20;99.90
28171;DHT22;15458;53.346;-1.688;2023-04-23T01:30:22;8.10;99.90
28171;DHT22;15458;53.346;-1.688;2023-04-23T01:32:48;8.10;99.90
28171;DHT22;15458;53.346;-1.688;2023-04-23T01:35:14;8.10;99.90
28171;DHT22;15458;53.346;-1.688;2023-04-23T01:37:41;8.10;99.90
28171;DHT22;15458;53.346;-1.688;2023-04-23T01:40:08;8.10;99.90
28171;DHT22;15458;53.346;-1.688;2023-04-23T01:42:35;8.10;99.90
28171;DHT22;15458;53.346;-1.688;2023-04-23T01:45:02;8.10;99.90
28171;DHT22;15458;53.346;-1.688;2023-04-23T01:47:28;8.00;99.90
28171;DHT22;15458;53.346;-1.688;2023-04-23T01:49:54;8.00;99.90
28171;DHT22;15458;53.346;-1.688;2023-04-23T01:52:19;8.00;99.90
28171;DHT22;15458;53.346;-1.688;2023-04-23T01:54:45;8.00;99.90
28171;DHT22;15458;53.346;-1.688;2023-04-23T01:57:11;8.10;99.90
28171;DHT22;15458;53.346;-1.688;2023-04-23T01:59:37;8.10;99.90
28171;DHT22;15458;53.346;-1.688;2023-04-23T02:02:03;8.10;99.90
28171;DHT22;15458;53.346;-1.688;2023-04-23T02:04:29;8.10;99.90
28171;DHT22;15458;53.346;-1.688;2023-04-23T02:06:55;8.10;99.90
28171;DHT22;15458;53.346;-1.688;2023-04-23T02:09:21;8.20;99.90
28171;DHT22;15458;53.346;-1.688;2023-04-23T02:11:47;8.20;99.90
28171;DHT22;15458;53.346;-1.688;2023-04-23T02:14:13;8.20;99.90
28171;DHT22;15458;53.346;-1.688;2023-04-23T02:16:38;8.20;99.90
28171;DHT22;15458;53.346;-1.688;2023-04-23T02:19:04;8.20;99.90
28171;DHT22;15458;53.346;-1.688;2023-04-23T02:21:30;8.20;99.90
28171;DHT22;15458;53.346;-1.688;2023-04-23T02:23:56;8.20;99.90
28171;DHT22;15458;53.346;-1.688;2023-04-23T02:26:23;8.20;99.90
28171;DHT22;15458;53.346;-1.688;2023-04-23T02:28:49;8.20;99.90
28171;DHT22;15458;53.346;-1.688;2023-04-23T02:31:15;8.20;99.90
28171;DHT22;15458;53.346;-1.688;2023-04-23T02:33:42;8.20;99.90
28171;DHT22;15458;53.346;-1.688;2023-04-23T02:36:08;8.20;99.90
28171;DHT22;15458;53.346;-1.688;2023-04-23T02:38:36;8.20;99.90
28171;DHT22;15458;53.346;-1.688;2023-04-23T02:41:02;8.20;99.90
28171;DHT22;15458;53.346;-1.688;2023-04-23T02:43:27;8.20;99.90
28171;DHT22;15458;53.346;-1.688;2023-04-23T02:45:53;8.20;99.90
28171;DHT22;15458;53.346;-1.688;2023-04-23T02:48:19;8.20;99.90
28171;DHT22;15458;53.346;-1.688;2023-04-23T02:50:46;8.20;99.90
28171;DHT22;15458;53.346;-1.688;2023-04-23T02:53:12;8.20;99.90
28171;DHT22;15458;53.346;-1.688;2023-04-23T02:55:37;8.20;99.90
28171;DHT22;15458;53.346;-1.688;2023-04-23T02:58:03;8.20;99.90
28171;DHT22;15458;53.346;-1.688;2023-04-23T03:00:29;8.20;99.90
28171;DHT22;15458;53.346;-1.688;2023-04-23T03:02:55;8.20;99.90
28171;DHT22;15458;53.346;-1.688;2023-04-23T03:05:21;8.20;99.90
28171;DHT22;15458;53.346;-1.688;2023-04-23T03:07:47;8.20;99.90
28171;DHT22;15458;53.346;-1.688;2023-04-23T03:10:13;8.20;99.90
28171;DHT22;15458;53.346;-1.688;2023-04-23T03:12:38;8.20;99.90
28171;DHT22;15458;53.346;-1.688;2023-04-23T03:15:04;8.20;99.90
28171;DHT22;15458;53.346;-1.688;2023-04-23T03:17:30;8.20;99.90
28171;DHT22;15458;53.346;-1.688;2023-04-23T03:19:56;8.20;99.90
28171;DHT22;15458;53.346;-1.688;2023-04-23T03:22:21;8.10;99.90
28171;DHT22;15458;53.346;-1.688;2023-04-23T03:24:47;8.10;99.90
28171;DHT22;15458;53.346;-1.688;2023-04-23T03:27:13;8.20;99.90
28171;DHT22;15458;53.346;-1.688;2023-04-23T03:29:38;8.20;99.90
28171;DHT22;15458;53.346;-1.688;2023-04-23T03:32:04;8.20;99.90
28171;DHT22;15458;53.346;-1.688;2023-04-23T03:34:30;8.10;99.90
28171;DHT22;15458;53.346;-1.688;2023-04-23T03:36:55;8.10;99.90
28171;DHT22;15458;53.346;-1.688;2023-04-23T03:39:21;8.10;99.90
28171;DHT22;15458;53.346;-1.688;2023-04-23T03:41:46;8.10;99.90
28171;DHT22;15458;53.346;-1.688;2023-04-23T03:44:12;8.10;99.90
28171;DHT22;15458;53.346;-1.688;2023-04-23T03:46:38;8.10;99.90
28171;DHT22;15458;53.346;-1.688;2023-04-23T03:49:03;8.10;99.90
28171;DHT22;15458;53.346;-1.688;2023-04-23T03:51:29;8.10;99.90
28171;DHT22;15458;53.346;-1.688;2023-04-23T03:53:56;8.00;99.90
28171;DHT22;15458;53.346;-1.688;2023-04-23T03:56:21;8.00;99.90
28171;DHT22;15458;53.346;-1.688;2023-04-23T03:58:47;8.00;99.90
28171;DHT22;15458;53.346;-1.688;2023-04-23T04:01:13;8.00;99.90
28171;DHT22;15458;53.346;-1.688;2023-04-23T04:03:38;8.00;99.90
28171;DHT22;15458;53.346;-1.688;2023-04-23T04:06:04;8.00;99.90
28171;DHT22;15458;53.346;-1.688;2023-04-23T04:08:30;8.00;99.90
28171;DHT22;15458;53.346;-1.688;2023-04-23T04:10:55;7.90;99.90
28171;DHT22;15458;53.346;-1.688;2023-04-23T04:13:21;7.90;99.90
28171;DHT22;15458;53.346;-1.688;2023-04-23T04:15:46;7.90;99.90
28171;DHT22;15458;53.346;-1.688;2023-04-23T04:18:12;7.90;99.90
28171;DHT22;15458;53.346;-1.688;2023-04-23T04:20:38;7.90;99.90
28171;DHT22;15458;53.346;-1.688;2023-04-23T04:23:03;7.90;99.90
28171;DHT22;15458;53.346;-1.688;2023-04-23T04:25:29;7.90;99.90
28171;DHT22;15458;53.346;-1.688;2023-04-23T04:27:55;7.90;99.90
28171;DHT22;15458;53.346;-1.688;2023-04-23T04:30:23;7.90;99.90
28171;DHT22;15458;53.346;-1.688;2023-04-23T04:32:49;7.90;99.90
28171;DHT22;15458;53.346;-1.688;2023-04-23T04:35:15;7.90;99.90
28171;DHT22;15458;53.346;-1.688;2023-04-23T04:37:41;7.90;99.90
28171;DHT22;15458;53.346;-1.688;2023-04-23T04:40:08;7.90;99.90
28171;DHT22;15458;53.346;-1.688;2023-04-23T04:42:36;7.90;99.90
28171;DHT22;15458;53.346;-1.688;2023-04-23T04:45:02;7.90;99.90
28171;DHT22;15458;53.346;-1.688;2023-04-23T04:47:28;7.90;99.90
28171;DHT22;15458;53.346;-1.688;2023-04-23T04:49:54;7.90;99.90
28171;DHT22;15458;53.346;-1.688;2023-04-23T04:52:22;7.90;99.90
28171;DHT22;15458;53.346;-1.688;2023-04-23T04:54:48;7.90;99.90
28171;DHT22;15458;53.346;-1.688;2023-04-23T04:57:14;7.90;99.90
28171;DHT22;15458;53.346;-1.688;2023-04-23T04:59:39;7.90;99.90
28171;DHT22;15458;53.346;-1.688;2023-04-23T05:02:05;7.90;99.90
28171;DHT22;15458;53.346;-1.688;2023-04-23T05:04:31;7.90;99.90
28171;DHT22;15458;53.346;-1.688;2023-04-23T05:06:57;7.90;99.90
28171;DHT22;15458;53.346;-1.688;2023-04-23T05:09:23;7.90;99.90
28171;DHT22;15458;53.346;-1.688;2023-04-23T05:11:49;7.90;99.90
28171;DHT22;15458;53.346;-1.688;2023-04-23T05:14:15;7.90;99.90
28171;DHT22;15458;53.346;-1.688;2023-04-23T05:16:40;7.90;99.90
28171;DHT22;15458;53.346;-1.688;2023-04-23T05:19:06;7.90;99.90
28171;DHT22;15458;53.346;-1.688;2023-04-23T05:21:32;7.90;99.90
28171;DHT22;15458;53.346;-1.688;2023-04-23T05:23:58;7.90;99.90
28171;DHT22;15458;53.346;-1.688;2023-04-23T05:26:24;7.90;99.90
28171;DHT22;15458;53.346;-1.688;2023-04-23T05:28:49;7.90;99.90
28171;DHT22;15458;53.346;-1.688;2023-04-23T05:31:15;7.80;99.90
28171;DHT22;15458;53.346;-1.688;2023-04-23T05:33:41;7.90;99.90
28171;DHT22;15458;53.346;-1.688;2023-04-23T05:36:09;7.80;99.90
28171;DHT22;15458;53.346;-1.688;2023-04-23T05:38:35;7.80;99.90
28171;DHT22;15458;53.346;-1.688;2023-04-23T05:41:00;7.80;99.90
28171;DHT22;15458;53.346;-1.688;2023-04-23T05:43:26;7.90;99.90
28171;DHT22;15458;53.346;-1.688;2023-04-23T05:45:52;7.90;99.90
28171;DHT22;15458;53.346;-1.688;2023-04-23T05:48:18;7.80;99.90
28171;DHT22;15458;53.346;-1.688;2023-04-23T05:50:43;7.90;99.90
28171;DHT22;15458;53.346;-1.688;2023-04-23T05:53:09;7.90;99.90
28171;DHT22;15458;53.346;-1.688;2023-04-23T05:55:35;7.90;99.90
28171;DHT22;15458;53.346;-1.688;2023-04-23T05:58:01;7.90;99.90
28171;DHT22;15458;53.346;-1.688;2023-04-23T06:00:27;7.90;99.90
28171;DHT22;15458;53.346;-1.688;2023-04-23T06:02:53;7.90;99.90
28171;DHT22;15458;53.346;-1.688;2023-04-23T06:05:19;8.00;99.90
28171;DHT22;15458;53.346;-1.688;2023-04-23T06:07:45;8.00;99.90
28171;DHT22;15458;53.346;-1.688;2023-04-23T06:10:11;8.10;99.90
28171;DHT22;15458;53.346;-1.688;2023-04-23T06:12:37;8.10;99.90
28171;DHT22;15458;53.346;-1.688;2023-04-23T06:15:07;8.10;99.90
28171;DHT22;15458;53.346;-1.688;2023-04-23T06:17:34;8.20;99.90
28171;DHT22;15458;53.346;-1.688;2023-04-23T06:19:59;8.30;99.90
28171;DHT22;15458;53.346;-1.688;2023-04-23T06:22:25;8.30;99.90
28171;DHT22;15458;53.346;-1.688;2023-04-23T06:24:51;8.30;99.90
28171;DHT22;15458;53.346;-1.688;2023-04-23T06:27:16;8.30;99.90
28171;DHT22;15458;53.346;-1.688;2023-04-23T06:29:42;8.40;99.90
28171;DHT22;15458;53.346;-1.688;2023-04-23T06:32:08;8.40;99.90
28171;DHT22;15458;53.346;-1.688;2023-04-23T06:34:34;8.40;99.90
28171;DHT22;15458;53.346;-1.688;2023-04-23T06:36:59;8.50;99.90
28171;DHT22;15458;53.346;-1.688;2023-04-23T06:39:25;8.50;99.90
28171;DHT22;15458;53.346;-1.688;2023-04-23T06:41:51;8.60;99.90
28171;DHT22;15458;53.346;-1.688;2023-04-23T06:44:16;8.60;99.90
28171;DHT22;15458;53.346;-1.688;2023-04-23T06:46:42;8.60;99.90
28171;DHT22;15458;53.346;-1.688;2023-04-23T06:49:08;8.70;99.90
28171;DHT22;15458;53.346;-1.688;2023-04-23T06:51:33;8.80;99.90
28171;DHT22;15458;53.346;-1.688;2023-04-23T06:53:59;8.90;99.90
28171;DHT22;15458;53.346;-1.688;2023-04-23T06:56:25;8.90;99.90
28171;DHT22;15458;53.346;-1.688;2023-04-23T06:58:51;9.00;99.90
28171;DHT22;15458;53.346;-1.688;2023-04-23T07:01:18;9.00;99.90
28171;DHT22;15458;53.346;-1.688;2023-04-23T07:03:44;8.90;99.90
28171;DHT22;15458;53.346;-1.688;2023-04-23T07:06:16;8.90;99.90
28171;DHT22;15458;53.346;-1.688;2023-04-23T07:08:42;8.90;99.90
28171;DHT22;15458;53.346;-1.688;2023-04-23T07:11:09;8.90;99.90
28171;DHT22;15458;53.346;-1.688;2023-04-23T07:13:35;8.90;99.90
28171;DHT22;15458;53.346;-1.688;2023-04-23T07:16:01;8.90;99.90
28171;DHT22;15458;53.346;-1.688;2023-04-23T07:18:26;8.90;99.90
28171;DHT22;15458;53.346;-1.688;2023-04-23T07:20:52;8.90;99.90
28171;DHT22;15458;53.346;-1.688;2023-04-23T07:23:18;8.90;99.90
28171;DHT22;15458;53.346;-1.688;2023-04-23T07:25:43;8.90;99.90
28171;DHT22;15458;53.346;-1.688;2023-04-23T07:28:09;9.00;99.90
28171;DHT22;15458;53.346;-1.688;2023-04-23T07:30:35;9.10;99.90
28171;DHT22;15458;53.346;-1.688;2023-04-23T07:33:00;9.20;99.90
28171;DHT22;15458;53.346;-1.688;2023-04-23T07:35:26;9.20;99.90
28171;DHT22;15458;53.346;-1.688;2023-04-23T07:37:52;9.30;99.90
28171;DHT22;15458;53.346;-1.688;2023-04-23T07:40:21;9.30;99.90
28171;DHT22;15458;53.346;-1.688;2023-04-23T07:42:47;9.30;99.90
28171;DHT22;15458;53.346;-1.688;2023-04-23T07:45:13;9.30;99.90
28171;DHT22;15458;53.346;-1.688;2023-04-23T07:47:39;9.30;99.90
28171;DHT22;15458;53.346;-1.688;2023-04-23T07:50:06;9.40;99.90
28171;DHT22;15458;53.346;-1.688;2023-04-23T07:52:32;9.40;99.90
28171;DHT22;15458;53.346;-1.688;2023-04-23T07:54:57;9.40;99.90
28171;DHT22;15458;53.346;-1.688;2023-04-23T07:57:23;9.40;99.90
28171;DHT22;15458;53.346;-1.688;2023-04-23T07:59:48;9.40;99.90
28171;DHT22;15458;53.346;-1.688;2023-04-23T08:02:14;9.50;99.90
28171;DHT22;15458;53.346;-1.688;2023-04-23T08:04:40;9.60;99.90
28171;DHT22;15458;53.346;-1.688;2023-04-23T08:07:06;9.60;99.90
28171;DHT22;15458;53.346;-1.688;2023-04-23T08:09:32;9.60;99.90
28171;DHT22;15458;53.346;-1.688;2023-04-23T08:11:57;9.70;99.90
28171;DHT22;15458;53.346;-1.688;2023-04-23T08:14:23;9.60;99.90
28171;DHT22;15458;53.346;-1.688;2023-04-23T08:16:48;9.70;99.90
28171;DHT22;15458;53.346;-1.688;2023-04-23T08:19:14;9.70;99.90
28171;DHT22;15458;53.346;-1.688;2023-04-23T08:21:41;9.70;99.90
28171;DHT22;15458;53.346;-1.688;2023-04-23T08:24:06;9.70;99.90
28171;DHT22;15458;53.346;-1.688;2023-04-23T08:26:32;9.70;99.90
28171;DHT22;15458;53.346;-1.688;2023-04-23T08:28:58;9.70;99.90
28171;DHT22;15458;53.346;-1.688;2023-04-23T08:31:27;9.70;99.90
28171;DHT22;15458;53.346;-1.688;2023-04-23T08:33:53;9.70;99.90
28171;DHT22;15458;53.346;-1.688;2023-04-23T08:36:19;9.70;99.90
28171;DHT22;15458;53.346;-1.688;2023-04-23T08:38:45;9.80;99.90
28171;DHT22;15458;53.346;-1.688;2023-04-23T08:41:13;9.80;99.90
28171;DHT22;15458;53.346;-1.688;2023-04-23T08:43:46;9.80;99.90
28171;DHT22;15458;53.346;-1.688;2023-04-23T08:46:13;9.90;99.90
28171;DHT22;15458;53.346;-1.688;2023-04-23T08:48:40;9.90;99.90
28171;DHT22;15458;53.346;-1.688;2023-04-23T08:51:09;9.90;99.90
28171;DHT22;15458;53.346;-1.688;2023-04-23T08:53:36;9.90;99.90
28171;DHT22;15458;53.346;-1.688;2023-04-23T08:56:04;9.90;99.90
28171;DHT22;15458;53.346;-1.688;2023-04-23T08:58:31;9.90;99.90
28171;DHT22;15458;53.346;-1.688;2023-04-23T09:00:58;9.90;99.90
28171;DHT22;15458;53.346;-1.688;2023-04-23T09:03:24;9.80;99.90
28171;DHT22;15458;53.346;-1.688;2023-04-23T09:05:50;9.80;99.90
28171;DHT22;15458;53.346;-1.688;2023-04-23T09:08:19;9.70;99.90
28171;DHT22;15458;53.346;-1.688;2023-04-23T09:10:45;9.70;99.90
28171;DHT22;15458;53.346;-1.688;2023-04-23T09:13:12;9.70;99.90
28171;DHT22;15458;53.346;-1.688;2023-04-23T09:15:39;9.80;99.90
28171;DHT22;15458;53.346;-1.688;2023-04-23T09:18:08;9.80;99.90
28171;DHT22;15458;53.346;-1.688;2023-04-23T09:20:34;9.80;99.90
28171;DHT22;15458;53.346;-1.688;2023-04-23T09:23:00;9.90;99.90
28171;DHT22;15458;53.346;-1.688;2023-04-23T09:25:31;9.90;99.90
28171;DHT22;15458;53.346;-1.688;2023-04-23T09:27:58;9.90;99.90
28171;DHT22;15458;53.346;-1.688;2023-04-23T09:30:25;9.90;99.90
28171;DHT22;15458;53.346;-1.688;2023-04-23T09:32:52;10.00;99.90
28171;DHT22;15458;53.346;-1.688;2023-04-23T09:35:18;10.00;99.90
28171;DHT22;15458;53.346;-1.688;2023-04-23T09:37:46;10.10;99.90
28171;DHT22;15458;53.346;-1.688;2023-04-23T09:40:14;10.20;99.90
28171;DHT22;15458;53.346;-1.688;2023-04-23T09:42:40;10.30;99.90
28171;DHT22;15458;53.346;-1.688;2023-04-23T09:45:07;10.40;99.90
28171;DHT22;15458;53.346;-1.688;2023-04-23T09:47:37;10.40;99.90
28171;DHT22;15458;53.346;-1.688;2023-04-23T09:50:04;10.60;99.90
28171;DHT22;15458;53.346;-1.688;2023-04-23T09:52:31;10.60;99.90
28171;DHT22;15458;53.346;-1.688;2023-04-23T09:54:57;10.70;99.90
28171;DHT22;15458;53.346;-1.688;2023-04-23T09:57:26;10.70;99.90
28171;DHT22;15458;53.346;-1.688;2023-04-23T09:59:52;10.70;99.90
28171;DHT22;15458;53.346;-1.688;2023-04-23T10:02:26;10.70;99.90
28171;DHT22;15458;53.346;-1.688;2023-04-23T10:04:52;10.80;99.90
28171;DHT22;15458;53.346;-1.688;2023-04-23T10:07:18;10.80;99.90
28171;DHT22;15458;53.346;-1.688;2023-04-23T10:09:44;10.80;99.90
28171;DHT22;15458;53.346;-1.688;2023-04-23T10:12:10;10.80;99.90
28171;DHT22;15458;53.346;-1.688;2023-04-23T10:14:38;10.80;99.90
28171;DHT22;15458;53.346;-1.688;2023-04-23T10:17:04;10.80;99.90
28171;DHT22;15458;53.346;-1.688;2023-04-23T10:19:31;10.70;99.90
28171;DHT22;15458;53.346;-1.688;2023-04-23T10:21:59;10.70;99.90
28171;DHT22;15458;53.346;-1.688;2023-04-23T10:24:31;10.70;99.90
28171;DHT22;15458;53.346;-1.688;2023-04-23T10:27:02;10.80;99.90
28171;DHT22;15458;53.346;-1.688;2023-04-23T10:29:33;10.80;99.90
28171;DHT22;15458;53.346;-1.688;2023-04-23T10:32:05;10.80;99.90
28171;DHT22;15458;53.346;-1.688;2023-04-23T10:34:32;10.80;99.90
28171;DHT22;15458;53.346;-1.688;2023-04-23T10:36:59;10.80;99.90
28171;DHT22;15458;53.346;-1.688;2023-04-23T10:39:31;10.80;99.90
28171;DHT22;15458;53.346;-1.688;2023-04-23T10:41:58;10.80;99.90
28171;DHT22;15458;53.346;-1.688;2023-04-23T10:44:32;10.80;99.90
28171;DHT22;15458;53.346;-1.688;2023-04-23T10:46:58;10.80;99.90
28171;DHT22;15458;53.346;-1.688;2023-04-23T10:49:29;10.90;99.90
28171;DHT22;15458;53.346;-1.688;2023-04-23T10:52:00;10.90;99.90
28171;DHT22;15458;53.346;-1.688;2023-04-23T10:54:31;11.00;99.90
28171;DHT22;15458;53.346;-1.688;2023-04-23T10:56:59;11.10;99.90
28171;DHT22;15458;53.346;-1.688;2023-04-23T10:59:26;11.10;99.90
28171;DHT22;15458;53.346;-1.688;2023-04-23T11:01:58;11.20;99.90
28171;DHT22;15458;53.346;-1.688;2023-04-23T11:04:30;11.20;99.90
28171;DHT22;15458;53.346;-1.688;2023-04-23T11:07:06;11.30;99.90
28171;DHT22;15458;53.346;-1.688;2023-04-23T11:09:42;11.40;99.90
28171;DHT22;15458;53.346;-1.688;2023-04-23T11:14:53;11.50;99.90
28171;DHT22;15458;53.346;-1.688;2023-04-23T11:20:07;11.60;99.90
28171;DHT22;15458;53.346;-1.688;2023-04-23T11:22:42;11.70;99.90
28171;DHT22;15458;53.346;-1.688;2023-04-23T11:25:13;11.80;99.90
28171;DHT22;15458;53.346;-1.688;2023-04-23T11:27:42;11.80;99.90
28171;DHT22;15458;53.346;-1.688;2023-04-23T11:32:45;11.80;99.90
28171;DHT22;15458;53.346;-1.688;2023-04-23T11:35:17;11.80;99.90
28171;DHT22;15458;53.346;-1.688;2023-04-23T11:37:44;11.80;99.90
28171;DHT22;15458;53.346;-1.688;2023-04-23T11:40:11;11.80;99.90
28171;DHT22;15458;53.346;-1.688;2023-04-23T11:42:42;11.70;99.90
28171;DHT22;15458;53.346;-1.688;2023-04-23T11:45:33;11.80;99.90
28171;DHT22;15458;53.346;-1.688;2023-04-23T11:48:00;11.80;99.90
28171;DHT22;15458;53.346;-1.688;2023-04-23T11:50:30;11.80;99.90
28171;DHT22;15458;53.346;-1.688;2023-04-23T11:53:02;11.80;99.90
28171;DHT22;15458;53.346;-1.688;2023-04-23T11:55:28;11.70;99.90
28171;DHT22;15458;53.346;-1.688;2023-04-23T11:57:56;11.60;99.90
28171;DHT22;15458;53.346;-1.688;2023-04-23T12:00:24;11.50;99.90
28171;DHT22;15458;53.346;-1.688;2023-04-23T12:02:58;11.50;99.90
28171;DHT22;15458;53.346;-1.688;2023-04-23T12:05:28;11.40;99.90
28171;DHT22;15458;53.346;-1.688;2023-04-23T12:07:54;11.30;99.90
28171;DHT22;15458;53.346;-1.688;2023-04-23T12:10:30;11.20;99.90
28171;DHT22;15458;53.346;-1.688;2023-04-23T12:12:57;11.10;99.90
28171;DHT22;15458;53.346;-1.688;2023-04-23T12:15:23;11.00;99.90
28171;DHT22;15458;53.346;-1.688;2023-04-23T12:17:49;10.90;99.90
28171;DHT22;15458;53.346;-1.688;2023-04-23T12:20:21;10.80;99.90
28171;DHT22;15458;53.346;-1.688;2023-04-23T12:22:47;10.70;99.90
28171;DHT22;15458;53.346;-1.688;2023-04-23T12:25:13;10.70;99.90
28171;DHT22;15458;53.346;-1.688;2023-04-23T12:27:40;10.60;99.90
28171;DHT22;15458;53.346;-1.688;2023-04-23T12:30:07;10.50;99.90
28171;DHT22;15458;53.346;-1.688;2023-04-23T12:32:33;10.40;99.90
28171;DHT22;15458;53.346;-1.688;2023-04-23T12:34:59;10.40;99.90
28171;DHT22;15458;53.346;-1.688;2023-04-23T12:37:27;10.30;99.90
28171;DHT22;15458;53.346;-1.688;2023-04-23T12:39:53;10.30;99.90
28171;DHT22;15458;53.346;-1.688;2023-04-23T12:42:21;10.20;99.90
28171;DHT22;15458;53.346;-1.688;2023-04-23T12:44:47;10.20;99.90
28171;DHT22;15458;53.346;-1.688;2023-04-23T12:47:13;10.10;99.90
28171;DHT22;15458;53.346;-1.688;2023-04-23T12:49:40;10.10;99.90
28171;DHT22;15458;53.346;-1.688;2023-04-23T12:52:07;10.10;99.90
28171;DHT22;15458;53.346;-1.688;2023-04-23T12:54:39;10.10;99.90
28171;DHT22;15458;53.346;-1.688;2023-04-23T12:57:12;10.00;99.90
28171;DHT22;15458;53.346;-1.688;2023-04-23T12:59:41;10.00;99.90
28171;DHT22;15458;53.346;-1.688;2023-04-23T13:02:07;9.90;99.90
28171;DHT22;15458;53.346;-1.688;2023-04-23T13:04:34;9.90;99.90
28171;DHT22;15458;53.346;-1.688;2023-04-23T13:07:00;9.80;99.90
28171;DHT22;15458;53.346;-1.688;2023-04-23T13:09:27;9.80;99.90
28171;DHT22;15458;53.346;-1.688;2023-04-23T13:11:53;9.70;99.90
28171;DHT22;15458;53.346;-1.688;2023-04-23T13:14:19;9.70;99.90
28171;DHT22;15458;53.346;-1.688;2023-04-23T13:16:46;9.70;99.90
28171;DHT22;15458;53.346;-1.688;2023-04-23T13:19:12;9.70;99.90
28171;DHT22;15458;53.346;-1.688;2023-04-23T13:21:38;9.70;99.90
28171;DHT22;15458;53.346;-1.688;2023-04-23T13:24:04;9.70;99.90
28171;DHT22;15458;53.346;-1.688;2023-04-23T13:26:29;9.70;99.90
28171;DHT22;15458;53.346;-1.688;2023-04-23T13:29:00;9.70;99.90
28171;DHT22;15458;53.346;-1.688;2023-04-23T13:31:26;9.80;99.90
28171;DHT22;15458;53.346;-1.688;2023-04-23T13:33:52;9.80;99.90
28171;DHT22;15458;53.346;-1.688;2023-04-23T13:36:18;9.80;99.90
28171;DHT22;15458;53.346;-1.688;2023-04-23T13:38:44;9.90;99.90
28171;DHT22;15458;53.346;-1.688;2023-04-23T13:41:11;9.90;99.90
28171;DHT22;15458;53.346;-1.688;2023-04-23T13:43:36;10.00;99.90
28171;DHT22;15458;53.346;-1.688;2023-04-23T13:46:02;10.10;99.90
28171;DHT22;15458;53.346;-1.688;2023-04-23T13:48:28;10.20;99.90
28171;DHT22;15458;53.346;-1.688;2023-04-23T13:50:56;10.20;99.90
28171;DHT22;15458;53.346;-1.688;2023-04-23T13:53:22;10.30;99.90
28171;DHT22;15458;53.346;-1.688;2023-04-23T13:55:48;10.40;99.90
28171;DHT22;15458;53.346;-1.688;2023-04-23T13:58:14;10.40;99.90
28171;DHT22;15458;53.346;-1.688;2023-04-23T14:00:41;10.50;99.90
28171;DHT22;15458;53.346;-1.688;2023-04-23T14:03:07;10.60;99.90
28171;DHT22;15458;53.346;-1.688;2023-04-23T14:05:33;10.70;99.90
28171;DHT22;15458;53.346;-1.688;2023-04-23T14:07:59;10.80;99.90
28171;DHT22;15458;53.346;-1.688;2023-04-23T14:10:24;11.00;99.90
28171;DHT22;15458;53.346;-1.688;2023-04-23T14:12:51;11.10;99.90
28171;DHT22;15458;53.346;-1.688;2023-04-23T14:15:17;11.30;99.90
28171;DHT22;15458;53.346;-1.688;2023-04-23T14:17:43;11.50;99.90
28171;DHT22;15458;53.346;-1.688;2023-04-23T14:20:10;11.60;99.90
28171;DHT22;15458;53.346;-1.688;2023-04-23T14:22:37;11.70;99.90
28171;DHT22;15458;53.346;-1.688;2023-04-23T14:25:08;11.70;99.90
28171;DHT22;15458;53.346;-1.688;2023-04-23T14:27:39;11.90;99.90
28171;DHT22;15458;53.346;-1.688;2023-04-23T14:30:17;12.10;99.90
28171;DHT22;15458;53.346;-1.688;2023-04-23T14:32:44;12.10;99.90
28171;DHT22;15458;53.346;-1.688;2023-04-23T14:35:14;12.20;99.90
28171;DHT22;15458;53.346;-1.688;2023-04-23T14:37:41;12.30;99.90
28171;DHT22;15458;53.346;-1.688;2023-04-23T14:40:13;12.30;99.90
28171;DHT22;15458;53.346;-1.688;2023-04-23T14:42:44;12.30;99.90
28171;DHT22;15458;53.346;-1.688;2023-04-23T14:45:10;12.30;99.90
28171;DHT22;15458;53.346;-1.688;2023-04-23T14:47:36;12.40;99.90
28171;DHT22;15458;53.346;-1.688;2023-04-23T14:50:02;12.50;99.90
28171;DHT22;15458;53.346;-1.688;2023-04-23T14:52:28;12.50;99.90
28171;DHT22;15458;53.346;-1.688;2023-04-23T14:54:54;12.50;99.90
28171;DHT22;15458;53.346;-1.688;2023-04-23T14:57:22;12.50;99.90
28171;DHT22;15458;53.346;-1.688;2023-04-23T14:59:47;12.40;99.90
28171;DHT22;15458;53.346;-1.688;2023-04-23T15:02:13;12.30;99.90
28171;DHT22;15458;53.346;-1.688;2023-04-23T15:04:39;12.10;99.90
28171;DHT22;15458;53.346;-1.688;2023-04-23T15:07:04;12.10;99.90
28171;DHT22;15458;53.346;-1.688;2023-04-23T15:09:30;12.00;99.90
28171;DHT22;15458;53.346;-1.688;2023-04-23T15:11:56;11.90;99.90
28171;DHT22;15458;53.346;-1.688;2023-04-23T15:14:31;11.90;99.90
28171;DHT22;15458;53.346;-1.688;2023-04-23T15:17:00;11.90;99.90
28171;DHT22;15458;53.346;-1.688;2023-04-23T15:19:26;11.90;99.90
28171;DHT22;15458;53.346;-1.688;2023-04-23T15:21:52;11.90;99.90
28171;DHT22;15458;53.346;-1.688;2023-04-23T15:24:18;12.00;99.90
28171;DHT22;15458;53.346;-1.688;2023-04-23T15:26:44;12.10;99.90
28171;DHT22;15458;53.346;-1.688;2023-04-23T15:29:10;12.20;99.90
28171;DHT22;15458;53.346;-1.688;2023-04-23T15:31:37;12.30;99.90